»·PEaware :: N583SC KDTA-KMLF

N583SC :: KDTA-KMLF

FLIGHT INFORMATION

Flight Status: Arrived
Operator: Privately registered:
United States
More flights under this callsign
Pilot: Scott G. (88)
Aircraft: CESSNA 172 SKYHAWK
(C172)
More flights by this aircraft type
Origin: KDTA Delta Mun
United States
Destination: KMLF Milford Mun
United States
More flights between these airports :: More routes between these airports
Route: +DTA V21 MLF
File this flight plan on PilotEdge
Remarks:
Altitude:
(Current/Filed)
10,000ft
Speed:
(Current/Filed)
110kts
Departed: 20-Feb-18 08:24 AM
Arrived: 20-Feb-18 09:03 AM
Distance/Time
Traveled:
62nm/0:39
Distance/Time
To Go:
Arrived

Flight Plot

Page will automatically refresh every two minutes.

Flight plan parsing failed; only flown route is shown


Map Options




Map Legend


Flown Route
Filed Route
Departure Airport
Arrival Airport
Navaid (VOR, NDB)
Fix

Horizontal Profiles

Position Reports

Time Latitude Longitude Heading Altitude Ground
Speed
20-Feb-18 08:19 39.385886 -112.512399 221 4763ft 0kts
20-Feb-18 08:20 39.385886 -112.512399 221 4763ft 0kts
20-Feb-18 08:21 39.385718 -112.512501 204 4763ft 4kts
20-Feb-18 08:22 39.385105 -112.510109 44 4763ft 15kts
20-Feb-18 08:23 39.389361 -112.504550 44 4763ft 25kts
20-Feb-18 08:24 39.390751 -112.502698 50 4763ft 0kts
20-Feb-18 08:25 39.390751 -112.502698 50 4763ft 0kts
20-Feb-18 08:26 39.390751 -112.502698 50 4763ft 0kts
20-Feb-18 08:27 39.390751 -112.502698 50 4763ft 0kts
20-Feb-18 08:28 39.390751 -112.502697 49 4763ft 0kts
20-Feb-18 08:29 39.390751 -112.502698 50 4763ft 0kts
20-Feb-18 08:30 39.390751 -112.502698 50 4763ft 0kts
20-Feb-18 08:31 39.385264 -112.502297 179 4798ft 74kts
20-Feb-18 08:32 39.364848 -112.502485 172 5540ft 76kts
20-Feb-18 08:33 39.369495 -112.495514 317 6243ft 70kts
20-Feb-18 08:34 39.364344 -112.510640 165 6869ft 87kts
20-Feb-18 08:35 39.340964 -112.503569 168 7555ft 83kts
20-Feb-18 08:36 39.316455 -112.503161 189 8081ft 94kts
20-Feb-18 08:37 39.290993 -112.513294 204 8588ft 97kts
20-Feb-18 08:38 39.266001 -112.526246 205 9092ft 97kts
20-Feb-18 08:39 39.241184 -112.539473 206 9596ft 96kts
20-Feb-18 08:40 39.216505 -112.552785 206 10034ft 101kts
20-Feb-18 08:41 39.187523 -112.568629 206 10034ft 118kts
20-Feb-18 08:42 39.157521 -112.584927 206 10034ft 115kts
20-Feb-18 08:43 39.127584 -112.601141 205 10034ft 118kts
20-Feb-18 08:44 39.097342 -112.617563 206 10034ft 118kts
20-Feb-18 08:45 39.066995 -112.634049 206 10034ft 118kts
20-Feb-18 08:46 39.035852 -112.646896 204 10032ft 118kts
20-Feb-18 08:47 39.005640 -112.663980 206 10030ft 118kts
20-Feb-18 08:48 38.975449 -112.681026 206 10025ft 118kts
20-Feb-18 08:49 38.945465 -112.697856 206 10019ft 118kts
20-Feb-18 08:50 38.916435 -112.714166 205 10012ft 118kts
20-Feb-18 08:51 38.888669 -112.729729 205 10004ft 118kts
20-Feb-18 08:52 38.858817 -112.746390 205 9997ft 118kts
20-Feb-18 08:53 38.830447 -112.765380 215 9875ft 122kts
20-Feb-18 08:54 38.801852 -112.789817 215 9580ft 127kts
20-Feb-18 08:55 38.772851 -112.814543 215 9284ft 127kts
20-Feb-18 08:56 38.744366 -112.838789 215 8993ft 126kts
20-Feb-18 08:57 38.716938 -112.862101 215 8711ft 125kts
20-Feb-18 08:58 38.691182 -112.883917 215 8700ft 114kts
20-Feb-18 08:59 38.665363 -112.905877 215 8700ft 112kts
20-Feb-18 09:00 38.639571 -112.927756 215 8700ft 112kts
20-Feb-18 09:01 38.615017 -112.946633 211 8521ft 123kts
20-Feb-18 09:02 38.585903 -112.968153 212 7957ft 125kts
20-Feb-18 09:03 38.559776 -112.987320 211 7441ft 108kts
20-Feb-18 09:04 38.534854 -113.005491 211 6954ft 105kts
20-Feb-18 09:05 38.508333 -113.013087 183 6464ft 91kts
20-Feb-18 09:06 38.485876 -113.013112 183 6044ft 71kts
20-Feb-18 09:07 38.465822 -113.012541 186 5694ft 72kts
20-Feb-18 09:08 38.447408 -113.012898 183 5335ft 65kts
20-Feb-18 09:09 38.429658 -113.013250 183 5048ft 57kts
20-Feb-18 09:10 38.419830 -113.012785 91 5043ft 10kts
20-Feb-18 09:11 38.419179 -113.010951 128 5040ft 9kts
20-Feb-18 09:12 38.419407 -113.010128 202 5039ft 4kts
20-Feb-18 09:13 38.419736 -113.010632 251 5040ft 3kts

Navigation Log

Ident Type
Flight plan parsing failed, navigation log unavailable